sensor_id;sensor_type;location;lat;lon;timestamp;P1;durP1;ratioP1;P2;durP2;ratioP2
66523;SDS011;53350;52.210;5.160;2023-03-19T00:01:05;4.70;;;2.10;;
66523;SDS011;53350;52.210;5.160;2023-03-19T00:03:33;5.32;;;2.15;;
66523;SDS011;53350;52.210;5.160;2023-03-19T00:06:00;5.57;;;2.10;;
66523;SDS011;53350;52.210;5.160;2023-03-19T00:08:27;7.53;;;2.47;;
66523;SDS011;53350;52.210;5.160;2023-03-19T00:10:54;5.97;;;2.30;;
66523;SDS011;53350;52.210;5.160;2023-03-19T00:13:22;4.65;;;2.30;;
66523;SDS011;53350;52.210;5.160;2023-03-19T00:15:48;3.92;;;2.10;;
66523;SDS011;53350;52.210;5.160;2023-03-19T00:18:15;4.95;;;2.28;;
66523;SDS011;53350;52.210;5.160;2023-03-19T00:20:42;5.50;;;2.30;;
66523;SDS011;53350;52.210;5.160;2023-03-19T00:23:08;4.65;;;2.10;;
66523;SDS011;53350;52.210;5.160;2023-03-19T00:25:35;4.40;;;2.45;;
66523;SDS011;53350;52.210;5.160;2023-03-19T00:28:01;7.07;;;2.60;;
66523;SDS011;53350;52.210;5.160;2023-03-19T00:30:29;5.90;;;2.78;;
66523;SDS011;53350;52.210;5.160;2023-03-19T00:32:55;5.68;;;2.67;;
66523;SDS011;53350;52.210;5.160;2023-03-19T00:35:21;5.55;;;2.70;;
66523;SDS011;53350;52.210;5.160;2023-03-19T00:37:48;6.13;;;2.53;;
66523;SDS011;53350;52.210;5.160;2023-03-19T00:40:14;5.32;;;2.45;;
66523;SDS011;53350;52.210;5.160;2023-03-19T00:42:41;7.75;;;2.80;;
66523;SDS011;53350;52.210;5.160;2023-03-19T00:45:09;8.25;;;3.30;;
66523;SDS011;53350;52.210;5.160;2023-03-19T00:47:38;6.32;;;2.97;;
66523;SDS011;53350;52.210;5.160;2023-03-19T00:50:04;7.75;;;3.10;;
66523;SDS011;53350;52.210;5.160;2023-03-19T00:52:31;6.80;;;2.85;;
66523;SDS011;53350;52.210;5.160;2023-03-19T00:54:57;5.82;;;3.25;;
66523;SDS011;53350;52.210;5.160;2023-03-19T00:57:24;8.32;;;3.53;;
66523;SDS011;53350;52.210;5.160;2023-03-19T00:59:51;6.68;;;3.13;;
66523;SDS011;53350;52.210;5.160;2023-03-19T01:02:17;6.18;;;3.15;;
66523;SDS011;53350;52.210;5.160;2023-03-19T01:04:46;7.15;;;3.75;;
66523;SDS011;53350;52.210;5.160;2023-03-19T01:07:12;7.45;;;3.65;;
66523;SDS011;53350;52.210;5.160;2023-03-19T01:09:39;8.13;;;3.63;;
66523;SDS011;53350;52.210;5.160;2023-03-19T01:12:06;6.70;;;3.35;;
66523;SDS011;53350;52.210;5.160;2023-03-19T01:14:33;8.07;;;3.60;;
66523;SDS011;53350;52.210;5.160;2023-03-19T01:16:59;8.73;;;3.42;;
66523;SDS011;53350;52.210;5.160;2023-03-19T01:19:26;7.60;;;3.88;;
66523;SDS011;53350;52.210;5.160;2023-03-19T01:21:54;10.18;;;3.70;;
66523;SDS011;53350;52.210;5.160;2023-03-19T01:24:20;7.55;;;4.07;;
66523;SDS011;53350;52.210;5.160;2023-03-19T01:26:47;6.80;;;4.10;;
66523;SDS011;53350;52.210;5.160;2023-03-19T01:29:13;7.30;;;4.00;;
66523;SDS011;53350;52.210;5.160;2023-03-19T01:31:39;8.63;;;3.80;;
66523;SDS011;53350;52.210;5.160;2023-03-19T01:34:06;10.43;;;4.10;;
66523;SDS011;53350;52.210;5.160;2023-03-19T01:36:32;6.25;;;3.92;;
66523;SDS011;53350;52.210;5.160;2023-03-19T01:39:00;6.20;;;3.83;;
66523;SDS011;53350;52.210;5.160;2023-03-19T01:41:26;8.52;;;4.10;;
66523;SDS011;53350;52.210;5.160;2023-03-19T01:43:53;8.30;;;4.25;;
66523;SDS011;53350;52.210;5.160;2023-03-19T01:46:21;9.35;;;4.22;;
66523;SDS011;53350;52.210;5.160;2023-03-19T01:48:53;8.02;;;4.05;;
66523;SDS011;53350;52.210;5.160;2023-03-19T01:51:24;7.55;;;4.25;;
66523;SDS011;53350;52.210;5.160;2023-03-19T01:53:54;7.80;;;4.32;;
66523;SDS011;53350;52.210;5.160;2023-03-19T01:56:25;7.65;;;4.40;;
66523;SDS011;53350;52.210;5.160;2023-03-19T01:58:56;9.60;;;4.65;;
66523;SDS011;53350;52.210;5.160;2023-03-19T02:01:26;7.20;;;4.38;;
66523;SDS011;53350;52.210;5.160;2023-03-19T02:03:53;9.32;;;4.80;;
66523;SDS011;53350;52.210;5.160;2023-03-19T02:06:21;7.63;;;5.00;;
66523;SDS011;53350;52.210;5.160;2023-03-19T02:08:49;10.77;;;5.20;;
66523;SDS011;53350;52.210;5.160;2023-03-19T02:13:45;7.72;;;4.82;;
66523;SDS011;53350;52.210;5.160;2023-03-19T02:16:11;9.50;;;5.50;;
66523;SDS011;53350;52.210;5.160;2023-03-19T02:18:39;10.18;;;5.68;;
66523;SDS011;53350;52.210;5.160;2023-03-19T02:21:06;8.52;;;4.97;;
66523;SDS011;53350;52.210;5.160;2023-03-19T02:23:36;9.48;;;6.30;;
66523;SDS011;53350;52.210;5.160;2023-03-19T02:26:10;9.13;;;6.20;;
66523;SDS011;53350;52.210;5.160;2023-03-19T02:28:40;11.60;;;6.57;;
66523;SDS011;53350;52.210;5.160;2023-03-19T02:31:08;11.40;;;7.22;;
66523;SDS011;53350;52.210;5.160;2023-03-19T02:33:36;13.25;;;8.45;;
66523;SDS011;53350;52.210;5.160;2023-03-19T02:36:03;11.82;;;7.97;;
66523;SDS011;53350;52.210;5.160;2023-03-19T02:38:32;13.68;;;8.05;;
66523;SDS011;53350;52.210;5.160;2023-03-19T02:41:00;12.63;;;8.45;;
66523;SDS011;53350;52.210;5.160;2023-03-19T02:43:30;12.63;;;8.35;;
66523;SDS011;53350;52.210;5.160;2023-03-19T02:45:58;12.82;;;9.10;;
66523;SDS011;53350;52.210;5.160;2023-03-19T02:48:25;13.45;;;7.93;;
66523;SDS011;53350;52.210;5.160;2023-03-19T02:50:52;13.57;;;8.45;;
66523;SDS011;53350;52.210;5.160;2023-03-19T02:53:18;12.35;;;7.82;;
66523;SDS011;53350;52.210;5.160;2023-03-19T02:55:45;13.55;;;8.63;;
66523;SDS011;53350;52.210;5.160;2023-03-19T02:58:11;12.90;;;8.65;;
66523;SDS011;53350;52.210;5.160;2023-03-19T03:00:39;14.68;;;8.40;;
66523;SDS011;53350;52.210;5.160;2023-03-19T03:03:06;14.20;;;9.20;;
66523;SDS011;53350;52.210;5.160;2023-03-19T03:05:33;13.07;;;9.07;;
66523;SDS011;53350;52.210;5.160;2023-03-19T03:08:00;16.15;;;9.95;;
66523;SDS011;53350;52.210;5.160;2023-03-19T03:10:27;12.55;;;8.38;;
66523;SDS011;53350;52.210;5.160;2023-03-19T03:12:53;14.18;;;8.70;;
66523;SDS011;53350;52.210;5.160;2023-03-19T03:15:20;15.10;;;9.13;;
66523;SDS011;53350;52.210;5.160;2023-03-19T03:17:47;13.57;;;9.45;;
66523;SDS011;53350;52.210;5.160;2023-03-19T03:20:14;15.00;;;9.07;;
66523;SDS011;53350;52.210;5.160;2023-03-19T03:22:44;13.70;;;9.18;;
66523;SDS011;53350;52.210;5.160;2023-03-19T03:25:10;14.75;;;9.65;;
66523;SDS011;53350;52.210;5.160;2023-03-19T03:27:37;15.07;;;9.57;;
66523;SDS011;53350;52.210;5.160;2023-03-19T03:30:04;13.63;;;9.40;;
66523;SDS011;53350;52.210;5.160;2023-03-19T03:32:32;13.95;;;9.48;;
66523;SDS011;53350;52.210;5.160;2023-03-19T03:35:00;13.25;;;8.70;;
66523;SDS011;53350;52.210;5.160;2023-03-19T03:39:54;15.60;;;8.95;;
66523;SDS011;53350;52.210;5.160;2023-03-19T03:42:21;13.65;;;9.80;;
66523;SDS011;53350;52.210;5.160;2023-03-19T03:44:47;13.98;;;9.80;;
66523;SDS011;53350;52.210;5.160;2023-03-19T03:47:13;14.93;;;9.75;;
66523;SDS011;53350;52.210;5.160;2023-03-19T03:49:41;15.20;;;9.73;;
66523;SDS011;53350;52.210;5.160;2023-03-19T03:52:10;15.40;;;10.00;;
66523;SDS011;53350;52.210;5.160;2023-03-19T03:57:03;14.13;;;9.15;;
66523;SDS011;53350;52.210;5.160;2023-03-19T03:59:30;13.77;;;9.43;;
66523;SDS011;53350;52.210;5.160;2023-03-19T04:01:56;15.27;;;10.20;;
66523;SDS011;53350;52.210;5.160;2023-03-19T04:04:23;17.17;;;9.50;;
66523;SDS011;53350;52.210;5.160;2023-03-19T04:06:49;14.07;;;9.90;;
66523;SDS011;53350;52.210;5.160;2023-03-19T04:09:17;15.55;;;9.85;;
66523;SDS011;53350;52.210;5.160;2023-03-19T04:11:43;13.25;;;9.95;;
66523;SDS011;53350;52.210;5.160;2023-03-19T04:14:10;16.02;;;10.40;;
66523;SDS011;53350;52.210;5.160;2023-03-19T04:16:37;16.13;;;10.77;;
66523;SDS011;53350;52.210;5.160;2023-03-19T04:19:03;15.85;;;10.40;;
66523;SDS011;53350;52.210;5.160;2023-03-19T04:21:31;14.70;;;10.18;;
66523;SDS011;53350;52.210;5.160;2023-03-19T04:23:58;17.20;;;10.77;;
66523;SDS011;53350;52.210;5.160;2023-03-19T04:26:27;15.05;;;10.32;;
66523;SDS011;53350;52.210;5.160;2023-03-19T04:28:53;15.52;;;10.00;;
66523;SDS011;53350;52.210;5.160;2023-03-19T04:31:20;14.30;;;10.02;;
66523;SDS011;53350;52.210;5.160;2023-03-19T04:33:46;15.07;;;10.70;;
66523;SDS011;53350;52.210;5.160;2023-03-19T04:36:13;18.00;;;10.15;;
66523;SDS011;53350;52.210;5.160;2023-03-19T04:41:08;14.48;;;9.90;;
66523;SDS011;53350;52.210;5.160;2023-03-19T04:43:36;17.10;;;9.98;;
66523;SDS011;53350;52.210;5.160;2023-03-19T04:46:02;18.38;;;11.18;;
66523;SDS011;53350;52.210;5.160;2023-03-19T04:48:30;16.85;;;10.63;;
66523;SDS011;53350;52.210;5.160;2023-03-19T04:50:57;16.30;;;11.23;;
66523;SDS011;53350;52.210;5.160;2023-03-19T04:53:24;18.70;;;11.68;;
66523;SDS011;53350;52.210;5.160;2023-03-19T04:55:50;17.80;;;11.52;;
66523;SDS011;53350;52.210;5.160;2023-03-19T04:58:17;16.45;;;12.20;;
66523;SDS011;53350;52.210;5.160;2023-03-19T05:00:45;15.48;;;11.70;;
66523;SDS011;53350;52.210;5.160;2023-03-19T05:03:11;16.52;;;11.23;;
66523;SDS011;53350;52.210;5.160;2023-03-19T05:05:38;16.38;;;11.30;;
66523;SDS011;53350;52.210;5.160;2023-03-19T05:08:05;18.45;;;12.43;;
66523;SDS011;53350;52.210;5.160;2023-03-19T05:10:32;16.27;;;11.65;;
66523;SDS011;53350;52.210;5.160;2023-03-19T05:12:59;19.77;;;13.23;;
66523;SDS011;53350;52.210;5.160;2023-03-19T05:15:25;18.25;;;12.77;;
66523;SDS011;53350;52.210;5.160;2023-03-19T05:17:53;21.02;;;13.88;;
66523;SDS011;53350;52.210;5.160;2023-03-19T05:20:20;20.45;;;13.18;;
66523;SDS011;53350;52.210;5.160;2023-03-19T05:22:47;19.85;;;13.05;;
66523;SDS011;53350;52.210;5.160;2023-03-19T05:25:14;20.40;;;14.02;;
66523;SDS011;53350;52.210;5.160;2023-03-19T05:27:41;18.80;;;13.88;;
66523;SDS011;53350;52.210;5.160;2023-03-19T05:30:08;22.83;;;14.90;;
66523;SDS011;53350;52.210;5.160;2023-03-19T05:32:35;23.48;;;14.88;;
66523;SDS011;53350;52.210;5.160;2023-03-19T05:35:03;22.95;;;16.25;;
66523;SDS011;53350;52.210;5.160;2023-03-19T05:37:30;21.88;;;15.98;;
66523;SDS011;53350;52.210;5.160;2023-03-19T05:39:57;24.58;;;17.17;;
66523;SDS011;53350;52.210;5.160;2023-03-19T05:42:24;23.13;;;16.52;;
66523;SDS011;53350;52.210;5.160;2023-03-19T05:44:50;25.73;;;19.02;;
66523;SDS011;53350;52.210;5.160;2023-03-19T05:47:17;25.52;;;19.13;;
66523;SDS011;53350;52.210;5.160;2023-03-19T05:49:43;27.77;;;20.02;;
66523;SDS011;53350;52.210;5.160;2023-03-19T05:52:11;30.05;;;20.52;;
66523;SDS011;53350;52.210;5.160;2023-03-19T05:54:37;26.98;;;20.58;;
66523;SDS011;53350;52.210;5.160;2023-03-19T05:57:05;26.38;;;19.90;;
66523;SDS011;53350;52.210;5.160;2023-03-19T05:59:32;29.40;;;21.20;;
66523;SDS011;53350;52.210;5.160;2023-03-19T06:01:59;24.15;;;18.73;;
66523;SDS011;53350;52.210;5.160;2023-03-19T06:04:26;26.15;;;20.30;;
66523;SDS011;53350;52.210;5.160;2023-03-19T06:06:52;25.38;;;20.17;;
66523;SDS011;53350;52.210;5.160;2023-03-19T06:09:20;30.48;;;21.90;;
66523;SDS011;53350;52.210;5.160;2023-03-19T06:11:46;30.30;;;20.80;;
66523;SDS011;53350;52.210;5.160;2023-03-19T06:14:13;28.73;;;21.58;;
66523;SDS011;53350;52.210;5.160;2023-03-19T06:16:39;27.83;;;21.48;;
66523;SDS011;53350;52.210;5.160;2023-03-19T06:19:06;28.17;;;21.55;;
66523;SDS011;53350;52.210;5.160;2023-03-19T06:21:33;32.15;;;22.25;;
66523;SDS011;53350;52.210;5.160;2023-03-19T06:24:00;27.52;;;21.60;;
66523;SDS011;53350;52.210;5.160;2023-03-19T06:26:28;27.42;;;20.60;;
66523;SDS011;53350;52.210;5.160;2023-03-19T06:28:54;28.75;;;20.30;;
66523;SDS011;53350;52.210;5.160;2023-03-19T06:31:21;27.90;;;20.58;;
66523;SDS011;53350;52.210;5.160;2023-03-19T06:33:47;28.73;;;21.23;;
66523;SDS011;53350;52.210;5.160;2023-03-19T06:36:14;28.15;;;21.75;;
66523;SDS011;53350;52.210;5.160;2023-03-19T06:38:40;29.27;;;21.13;;
66523;SDS011;53350;52.210;5.160;2023-03-19T06:41:07;30.52;;;20.90;;
66523;SDS011;53350;52.210;5.160;2023-03-19T06:43:35;29.30;;;21.70;;
66523;SDS011;53350;52.210;5.160;2023-03-19T06:46:01;26.83;;;20.85;;
66523;SDS011;53350;52.210;5.160;2023-03-19T06:48:28;32.63;;;22.45;;
66523;SDS011;53350;52.210;5.160;2023-03-19T06:50:55;31.95;;;22.00;;
66523;SDS011;53350;52.210;5.160;2023-03-19T06:53:21;31.30;;;21.55;;
66523;SDS011;53350;52.210;5.160;2023-03-19T06:55:47;30.90;;;22.42;;
66523;SDS011;53350;52.210;5.160;2023-03-19T06:58:14;31.65;;;23.27;;
66523;SDS011;53350;52.210;5.160;2023-03-19T07:00:42;32.33;;;21.73;;
66523;SDS011;53350;52.210;5.160;2023-03-19T07:03:09;32.42;;;20.25;;
66523;SDS011;53350;52.210;5.160;2023-03-19T07:05:36;34.67;;;23.77;;
66523;SDS011;53350;52.210;5.160;2023-03-19T07:08:03;37.20;;;24.33;;
66523;SDS011;53350;52.210;5.160;2023-03-19T07:10:35;29.25;;;19.50;;
66523;SDS011;53350;52.210;5.160;2023-03-19T07:13:02;29.33;;;19.73;;
66523;SDS011;53350;52.210;5.160;2023-03-19T07:15:29;29.67;;;21.50;;
66523;SDS011;53350;52.210;5.160;2023-03-19T07:17:57;29.73;;;20.10;;
66523;SDS011;53350;52.210;5.160;2023-03-19T07:20:23;32.75;;;22.17;;
66523;SDS011;53350;52.210;5.160;2023-03-19T07:22:50;32.72;;;20.85;;
66523;SDS011;53350;52.210;5.160;2023-03-19T07:25:16;27.75;;;19.42;;
66523;SDS011;53350;52.210;5.160;2023-03-19T07:27:43;31.48;;;21.48;;
66523;SDS011;53350;52.210;5.160;2023-03-19T07:30:10;34.20;;;22.55;;
66523;SDS011;53350;52.210;5.160;2023-03-19T07:32:38;34.42;;;21.88;;
66523;SDS011;53350;52.210;5.160;2023-03-19T07:35:06;36.17;;;23.50;;
66523;SDS011;53350;52.210;5.160;2023-03-19T07:37:34;36.50;;;23.65;;
66523;SDS011;53350;52.210;5.160;2023-03-19T07:40:01;36.42;;;23.25;;
66523;SDS011;53350;52.210;5.160;2023-03-19T07:42:29;34.60;;;23.35;;
66523;SDS011;53350;52.210;5.160;2023-03-19T07:44:55;38.85;;;25.33;;
66523;SDS011;53350;52.210;5.160;2023-03-19T07:47:21;39.33;;;23.85;;
66523;SDS011;53350;52.210;5.160;2023-03-19T07:49:48;38.72;;;24.83;;
66523;SDS011;53350;52.210;5.160;2023-03-19T07:52:16;39.85;;;26.13;;
66523;SDS011;53350;52.210;5.160;2023-03-19T07:54:43;41.58;;;26.33;;
66523;SDS011;53350;52.210;5.160;2023-03-19T07:57:10;41.10;;;24.85;;
66523;SDS011;53350;52.210;5.160;2023-03-19T07:59:36;31.10;;;21.17;;
66523;SDS011;53350;52.210;5.160;2023-03-19T08:02:02;25.60;;;15.80;;
66523;SDS011;53350;52.210;5.160;2023-03-19T08:04:29;29.35;;;20.35;;
66523;SDS011;53350;52.210;5.160;2023-03-19T08:06:55;28.08;;;19.58;;
66523;SDS011;53350;52.210;5.160;2023-03-19T08:09:23;27.70;;;18.30;;
66523;SDS011;53350;52.210;5.160;2023-03-19T08:11:50;26.88;;;16.95;;
66523;SDS011;53350;52.210;5.160;2023-03-19T08:14:16;22.15;;;15.98;;
66523;SDS011;53350;52.210;5.160;2023-03-19T08:16:46;26.25;;;16.95;;
66523;SDS011;53350;52.210;5.160;2023-03-19T08:19:13;23.02;;;16.17;;
66523;SDS011;53350;52.210;5.160;2023-03-19T08:21:39;27.17;;;19.48;;
66523;SDS011;53350;52.210;5.160;2023-03-19T08:24:06;26.27;;;18.00;;
66523;SDS011;53350;52.210;5.160;2023-03-19T08:26:34;28.60;;;18.55;;
66523;SDS011;53350;52.210;5.160;2023-03-19T08:29:01;24.52;;;16.60;;
66523;SDS011;53350;52.210;5.160;2023-03-19T08:31:28;25.88;;;17.40;;
66523;SDS011;53350;52.210;5.160;2023-03-19T08:33:55;28.08;;;18.92;;
66523;SDS011;53350;52.210;5.160;2023-03-19T08:36:24;26.98;;;17.92;;
66523;SDS011;53350;52.210;5.160;2023-03-19T08:38:51;27.67;;;19.17;;
66523;SDS011;53350;52.210;5.160;2023-03-19T08:41:18;27.80;;;19.40;;
66523;SDS011;53350;52.210;5.160;2023-03-19T08:43:47;34.08;;;20.45;;
66523;SDS011;53350;52.210;5.160;2023-03-19T08:46:13;31.50;;;20.35;;
66523;SDS011;53350;52.210;5.160;2023-03-19T08:48:40;33.65;;;20.23;;
66523;SDS011;53350;52.210;5.160;2023-03-19T08:51:07;28.50;;;19.20;;
66523;SDS011;53350;52.210;5.160;2023-03-19T08:53:33;29.60;;;18.67;;
66523;SDS011;53350;52.210;5.160;2023-03-19T08:56:00;30.70;;;19.98;;
66523;SDS011;53350;52.210;5.160;2023-03-19T08:58:29;31.10;;;18.40;;
66523;SDS011;53350;52.210;5.160;2023-03-19T09:01:01;30.35;;;20.30;;
66523;SDS011;53350;52.210;5.160;2023-03-19T09:03:29;29.73;;;17.33;;
66523;SDS011;53350;52.210;5.160;2023-03-19T09:05:57;27.02;;;18.38;;
66523;SDS011;53350;52.210;5.160;2023-03-19T09:08:24;28.58;;;19.63;;
66523;SDS011;53350;52.210;5.160;2023-03-19T09:10:52;32.70;;;19.95;;
66523;SDS011;53350;52.210;5.160;2023-03-19T09:13:18;32.33;;;20.60;;
66523;SDS011;53350;52.210;5.160;2023-03-19T09:15:45;36.00;;;21.75;;
66523;SDS011;53350;52.210;5.160;2023-03-19T09:18:12;34.55;;;22.77;;
66523;SDS011;53350;52.210;5.160;2023-03-19T09:20:39;37.17;;;24.13;;
66523;SDS011;53350;52.210;5.160;2023-03-19T09:23:06;42.92;;;24.50;;
66523;SDS011;53350;52.210;5.160;2023-03-19T09:25:32;40.65;;;23.67;;
66523;SDS011;53350;52.210;5.160;2023-03-19T09:27:59;40.60;;;23.88;;
66523;SDS011;53350;52.210;5.160;2023-03-19T09:30:25;40.53;;;23.13;;
66523;SDS011;53350;52.210;5.160;2023-03-19T09:32:52;38.63;;;22.95;;
66523;SDS011;53350;52.210;5.160;2023-03-19T09:35:20;36.15;;;22.15;;
66523;SDS011;53350;52.210;5.160;2023-03-19T09:37:47;34.53;;;20.88;;
66523;SDS011;53350;52.210;5.160;2023-03-19T09:40:15;32.60;;;20.40;;
66523;SDS011;53350;52.210;5.160;2023-03-19T09:42:52;32.40;;;19.17;;
66523;SDS011;53350;52.210;5.160;2023-03-19T09:47:53;29.55;;;17.63;;
66523;SDS011;53350;52.210;5.160;2023-03-19T09:50:24;30.15;;;17.63;;
66523;SDS011;53350;52.210;5.160;2023-03-19T09:52:53;30.52;;;18.17;;
66523;SDS011;53350;52.210;5.160;2023-03-19T09:55:32;26.02;;;16.20;;
66523;SDS011;53350;52.210;5.160;2023-03-19T09:58:09;29.67;;;16.80;;
66523;SDS011;53350;52.210;5.160;2023-03-19T10:00:39;29.27;;;17.42;;
66523;SDS011;53350;52.210;5.160;2023-03-19T10:03:11;31.83;;;17.95;;
66523;SDS011;53350;52.210;5.160;2023-03-19T10:05:50;30.75;;;16.25;;
66523;SDS011;53350;52.210;5.160;2023-03-19T10:08:32;29.63;;;16.77;;
66523;SDS011;53350;52.210;5.160;2023-03-19T10:11:23;31.75;;;16.70;;
66523;SDS011;53350;52.210;5.160;2023-03-19T10:16:33;32.20;;;16.58;;
66523;SDS011;53350;52.210;5.160;2023-03-19T10:19:04;36.03;;;18.00;;
66523;SDS011;53350;52.210;5.160;2023-03-19T10:21:33;31.23;;;15.80;;
66523;SDS011;53350;52.210;5.160;2023-03-19T10:24:06;35.20;;;16.98;;
66523;SDS011;53350;52.210;5.160;2023-03-19T10:26:38;29.50;;;16.42;;
66523;SDS011;53350;52.210;5.160;2023-03-19T10:29:06;30.23;;;16.90;;
66523;SDS011;53350;52.210;5.160;2023-03-19T10:31:46;35.63;;;17.17;;
66523;SDS011;53350;52.210;5.160;2023-03-19T10:34:20;29.30;;;16.45;;
66523;SDS011;53350;52.210;5.160;2023-03-19T10:36:58;31.58;;;16.90;;
66523;SDS011;53350;52.210;5.160;2023-03-19T10:39:27;33.28;;;17.45;;
66523;SDS011;53350;52.210;5.160;2023-03-19T10:41:57;30.10;;;16.70;;
66523;SDS011;53350;52.210;5.160;2023-03-19T10:44:34;28.33;;;16.45;;
66523;SDS011;53350;52.210;5.160;2023-03-19T10:47:10;27.27;;;15.65;;
66523;SDS011;53350;52.210;5.160;2023-03-19T10:49:38;31.52;;;16.73;;
66523;SDS011;53350;52.210;5.160;2023-03-19T10:52:12;27.15;;;15.23;;
66523;SDS011;53350;52.210;5.160;2023-03-19T10:54:44;25.17;;;14.57;;
66523;SDS011;53350;52.210;5.160;2023-03-19T10:57:20;29.45;;;15.77;;
66523;SDS011;53350;52.210;5.160;2023-03-19T10:59:48;29.00;;;16.40;;
66523;SDS011;53350;52.210;5.160;2023-03-19T11:02:15;26.73;;;15.20;;
66523;SDS011;53350;52.210;5.160;2023-03-19T11:04:43;29.75;;;18.02;;
66523;SDS011;53350;52.210;5.160;2023-03-19T11:07:12;29.48;;;16.88;;
66523;SDS011;53350;52.210;5.160;2023-03-19T11:09:43;32.25;;;16.98;;
66523;SDS011;53350;52.210;5.160;2023-03-19T11:12:19;31.73;;;18.42;;
66523;SDS011;53350;52.210;5.160;2023-03-19T11:14:48;33.63;;;18.10;;
66523;SDS011;53350;52.210;5.160;2023-03-19T11:17:21;31.38;;;16.83;;
66523;SDS011;53350;52.210;5.160;2023-03-19T11:19:51;34.03;;;17.95;;
66523;SDS011;53350;52.210;5.160;2023-03-19T11:22:21;34.92;;;18.90;;
66523;SDS011;53350;52.210;5.160;2023-03-19T11:24:50;31.63;;;18.23;;
66523;SDS011;53350;52.210;5.160;2023-03-19T11:27:25;31.98;;;17.77;;
66523;SDS011;53350;52.210;5.160;2023-03-19T11:29:54;34.72;;;18.15;;
66523;SDS011;53350;52.210;5.160;2023-03-19T11:32:24;30.00;;;17.52;;
66523;SDS011;53350;52.210;5.160;2023-03-19T11:35:19;38.17;;;21.73;;
66523;SDS011;53350;52.210;5.160;2023-03-19T11:37:52;34.67;;;20.75;;
66523;SDS011;53350;52.210;5.160;2023-03-19T11:40:24;45.33;;;31.27;;
66523;SDS011;53350;52.210;5.160;2023-03-19T11:43:04;39.47;;;21.65;;
66523;SDS011;53350;52.210;5.160;2023-03-19T11:45:47;46.20;;;26.25;;
66523;SDS011;53350;52.210;5.160;2023-03-19T11:48:25;30.90;;;18.98;;
66523;SDS011;53350;52.210;5.160;2023-03-19T11:51:03;34.95;;;20.25;;
66523;SDS011;53350;52.210;5.160;2023-03-19T11:53:40;32.13;;;19.77;;
66523;SDS011;53350;52.210;5.160;2023-03-19T11:56:19;32.63;;;18.17;;
66523;SDS011;53350;52.210;5.160;2023-03-19T11:58:54;34.70;;;19.48;;
66523;SDS011;53350;52.210;5.160;2023-03-19T12:01:41;33.80;;;20.23;;
66523;SDS011;53350;52.210;5.160;2023-03-19T12:07:27;29.05;;;17.50;;
66523;SDS011;53350;52.210;5.160;2023-03-19T12:10:02;31.23;;;18.67;;
66523;SDS011;53350;52.210;5.160;2023-03-19T12:12:51;31.65;;;17.27;;
66523;SDS011;53350;52.210;5.160;2023-03-19T12:15:30;33.03;;;17.70;;
66523;SDS011;53350;52.210;5.160;2023-03-19T12:18:10;30.90;;;16.65;;
66523;SDS011;53350;52.210;5.160;2023-03-19T12:20:48;25.55;;;11.55;;
66523;SDS011;53350;52.210;5.160;2023-03-19T12:23:26;25.15;;;11.77;;
66523;SDS011;53350;52.210;5.160;2023-03-19T12:26:06;26.35;;;13.75;;
66523;SDS011;53350;52.210;5.160;2023-03-19T12:28:40;29.80;;;15.73;;
66523;SDS011;53350;52.210;5.160;2023-03-19T12:31:18;33.00;;;17.30;;
66523;SDS011;53350;52.210;5.160;2023-03-19T12:33:59;37.85;;;18.38;;
66523;SDS011;53350;52.210;5.160;2023-03-19T12:36:36;34.45;;;17.70;;
66523;SDS011;53350;52.210;5.160;2023-03-19T12:39:09;36.75;;;19.45;;
66523;SDS011;53350;52.210;5.160;2023-03-19T12:41:42;33.90;;;19.35;;
66523;SDS011;53350;52.210;5.160;2023-03-19T12:44:12;28.75;;;15.25;;
66523;SDS011;53350;52.210;5.160;2023-03-19T12:46:44;35.03;;;16.60;;
66523;SDS011;53350;52.210;5.160;2023-03-19T12:49:18;33.80;;;18.90;;
66523;SDS011;53350;52.210;5.160;2023-03-19T12:51:51;37.60;;;18.70;;
66523;SDS011;53350;52.210;5.160;2023-03-19T12:54:22;41.60;;;18.75;;
66523;SDS011;53350;52.210;5.160;2023-03-19T12:56:53;36.53;;;18.83;;
66523;SDS011;53350;52.210;5.160;2023-03-19T12:59:26;33.67;;;18.13;;
66523;SDS011;53350;52.210;5.160;2023-03-19T13:01:57;41.13;;;19.98;;
66523;SDS011;53350;52.210;5.160;2023-03-19T13:04:29;33.33;;;17.73;;
66523;SDS011;53350;52.210;5.160;2023-03-19T13:07:00;39.55;;;18.77;;
66523;SDS011;53350;52.210;5.160;2023-03-19T13:09:31;34.55;;;19.42;;
66523;SDS011;53350;52.210;5.160;2023-03-19T13:12:03;40.13;;;18.20;;
66523;SDS011;53350;52.210;5.160;2023-03-19T13:14:35;38.90;;;20.85;;
66523;SDS011;53350;52.210;5.160;2023-03-19T13:17:13;37.22;;;18.58;;
66523;SDS011;53350;52.210;5.160;2023-03-19T13:19:47;42.20;;;20.10;;
66523;SDS011;53350;52.210;5.160;2023-03-19T13:22:18;39.78;;;21.27;;
66523;SDS011;53350;52.210;5.160;2023-03-19T13:24:47;36.58;;;19.05;;
66523;SDS011;53350;52.210;5.160;2023-03-19T13:27:18;35.70;;;19.10;;
66523;SDS011;53350;52.210;5.160;2023-03-19T13:29:55;35.00;;;19.80;;
66523;SDS011;53350;52.210;5.160;2023-03-19T13:32:27;36.42;;;19.80;;
66523;SDS011;53350;52.210;5.160;2023-03-19T13:35:19;29.75;;;16.98;;
66523;SDS011;53350;52.210;5.160;2023-03-19T13:37:54;30.23;;;16.40;;
66523;SDS011;53350;52.210;5.160;2023-03-19T13:40:37;28.27;;;17.27;;
66523;SDS011;53350;52.210;5.160;2023-03-19T13:43:38;28.27;;;16.50;;
66523;SDS011;53350;52.210;5.160;2023-03-19T13:49:25;33.10;;;17.67;;
66523;SDS011;53350;52.210;5.160;2023-03-19T13:51:58;34.17;;;18.70;;
66523;SDS011;53350;52.210;5.160;2023-03-19T13:54:31;30.77;;;18.23;;
66523;SDS011;53350;52.210;5.160;2023-03-19T14:03:16;28.27;;;17.67;;
66523;SDS011;53350;52.210;5.160;2023-03-19T14:05:45;31.75;;;18.63;;
66523;SDS011;53350;52.210;5.160;2023-03-19T14:08:14;30.45;;;17.92;;
66523;SDS011;53350;52.210;5.160;2023-03-19T14:10:45;26.67;;;14.82;;
66523;SDS011;53350;52.210;5.160;2023-03-19T14:13:16;34.45;;;18.90;;
66523;SDS011;53350;52.210;5.160;2023-03-19T14:15:49;36.55;;;18.50;;
66523;SDS011;53350;52.210;5.160;2023-03-19T14:18:19;28.00;;;15.43;;
66523;SDS011;53350;52.210;5.160;2023-03-19T14:20:49;25.73;;;14.77;;
66523;SDS011;53350;52.210;5.160;2023-03-19T14:23:22;23.20;;;11.90;;
66523;SDS011;53350;52.210;5.160;2023-03-19T14:25:51;30.73;;;16.00;;
66523;SDS011;53350;52.210;5.160;2023-03-19T14:28:34;26.90;;;16.67;;
66523;SDS011;53350;52.210;5.160;2023-03-19T14:31:14;28.40;;;14.43;;
66523;SDS011;53350;52.210;5.160;2023-03-19T14:33:48;27.67;;;16.27;;
66523;SDS011;53350;52.210;5.160;2023-03-19T14:36:18;28.58;;;14.73;;
66523;SDS011;53350;52.210;5.160;2023-03-19T14:38:47;26.67;;;16.65;;
66523;SDS011;53350;52.210;5.160;2023-03-19T14:41:16;27.20;;;15.35;;
66523;SDS011;53350;52.210;5.160;2023-03-19T14:43:52;23.80;;;14.18;;
66523;SDS011;53350;52.210;5.160;2023-03-19T14:46:44;23.92;;;12.98;;
66523;SDS011;53350;52.210;5.160;2023-03-19T14:49:44;25.77;;;14.30;;
66523;SDS011;53350;52.210;5.160;2023-03-19T14:52:36;20.02;;;10.30;;
66523;SDS011;53350;52.210;5.160;2023-03-19T14:55:08;25.10;;;13.40;;
66523;SDS011;53350;52.210;5.160;2023-03-19T14:57:36;25.48;;;14.30;;
66523;SDS011;53350;52.210;5.160;2023-03-19T15:00:03;32.38;;;15.75;;
66523;SDS011;53350;52.210;5.160;2023-03-19T15:02:34;22.67;;;14.02;;
66523;SDS011;53350;52.210;5.160;2023-03-19T15:05:06;28.17;;;14.00;;
66523;SDS011;53350;52.210;5.160;2023-03-19T15:07:35;24.15;;;12.05;;
66523;SDS011;53350;52.210;5.160;2023-03-19T15:10:05;23.15;;;12.27;;